createdAt,value
2023-08-12T00:00:26.791Z,70.76
2023-08-12T00:00:56.852Z,70.66
2023-08-12T00:01:26.902Z,70.66
2023-08-12T00:01:56.803Z,70.56
2023-08-12T00:02:26.785Z,70.66
2023-08-12T00:02:57.381Z,70.76
2023-08-12T00:03:26.862Z,70.76
2023-08-12T00:03:56.807Z,70.76
2023-08-12T00:04:26.780Z,70.66
2023-08-12T00:04:56.757Z,70.66
2023-08-12T00:05:26.785Z,70.76
2023-08-12T00:05:56.792Z,70.76
2023-08-12T00:06:26.784Z,70.79
2023-08-12T00:06:56.737Z,70.69
2023-08-12T00:07:26.739Z,70.66
2023-08-12T00:07:56.749Z,71.00
2023-08-12T00:08:26.789Z,71.00
2023-08-12T00:08:56.751Z,71.26
2023-08-12T00:09:26.737Z,71.50
2023-08-12T00:09:57.703Z,71.30
2023-08-12T00:10:26.937Z,71.39
2023-08-12T00:10:56.712Z,71.50
2023-08-12T00:11:26.733Z,71.50
2023-08-12T00:11:56.694Z,71.80
2023-08-12T00:12:26.697Z,71.69
2023-08-12T00:12:56.691Z,71.80
2023-08-12T00:13:26.750Z,71.80
2023-08-12T00:13:56.685Z,71.89
2023-08-12T00:14:26.693Z,71.89
2023-08-12T00:14:56.660Z,71.89
2023-08-12T00:15:26.679Z,71.80
2023-08-12T00:15:56.773Z,71.89
2023-08-12T00:16:26.672Z,71.89
2023-08-12T00:16:56.621Z,72.00
2023-08-12T00:17:26.639Z,72.00
2023-08-12T00:17:56.666Z,72.09
2023-08-12T00:18:26.668Z,71.89
2023-08-12T00:18:56.618Z,71.89
2023-08-12T00:19:26.612Z,71.89
2023-08-12T00:19:56.625Z,71.89
2023-08-12T00:20:26.598Z,71.69
2023-08-12T00:20:56.644Z,71.69
2023-08-12T00:21:26.627Z,71.69
2023-08-12T00:21:56.650Z,71.59
2023-08-12T00:22:26.598Z,71.59
2023-08-12T00:22:56.574Z,71.69
2023-08-12T00:23:26.581Z,71.59
2023-08-12T00:23:56.735Z,71.50
2023-08-12T00:24:26.773Z,71.30
2023-08-12T00:24:56.567Z,71.19
2023-08-12T00:25:26.610Z,71.19
2023-08-12T00:25:56.541Z,71.19
2023-08-12T00:26:26.546Z,71.09
2023-08-12T00:26:56.541Z,71.09
2023-08-12T00:27:26.563Z,71.19
2023-08-12T00:27:56.561Z,71.39
2023-08-12T00:28:26.497Z,71.69
2023-08-12T00:28:56.562Z,71.69
2023-08-12T00:29:26.508Z,71.69
2023-08-12T00:29:56.521Z,71.69
2023-08-12T00:30:26.487Z,71.50
2023-08-12T00:30:56.523Z,71.50
2023-08-12T00:31:26.514Z,71.59
2023-08-12T00:31:56.489Z,71.50
2023-08-12T00:32:26.495Z,71.50
2023-08-12T00:32:56.573Z,71.69
2023-08-12T00:33:26.470Z,71.69
2023-08-12T00:33:56.493Z,71.69
2023-08-12T00:34:26.478Z,71.69
2023-08-12T00:34:56.446Z,71.63
2023-08-12T00:35:26.440Z,71.63
2023-08-12T00:35:56.412Z,71.69
2023-08-12T00:36:26.435Z,71.93
2023-08-12T00:36:56.456Z,71.93
2023-08-12T00:37:26.476Z,72.19
2023-08-12T00:37:56.538Z,72.03
2023-08-12T00:38:26.638Z,71.93
2023-08-12T00:38:56.411Z,72.13
2023-08-12T00:39:26.470Z,72.23
2023-08-12T00:39:56.378Z,72.23
2023-08-12T00:40:26.422Z,72.43
2023-08-12T00:40:56.380Z,72.23
2023-08-12T00:41:26.409Z,71.93
2023-08-12T00:41:56.397Z,72.03
2023-08-12T00:42:26.394Z,71.93
2023-08-12T00:42:56.421Z,72.13
2023-08-12T00:43:26.377Z,72.23
2023-08-12T00:43:56.380Z,72.23
2023-08-12T00:44:26.365Z,72.23
2023-08-12T00:44:56.386Z,72.43
2023-08-12T00:45:26.391Z,72.53
2023-08-12T00:45:56.345Z,72.53
2023-08-12T00:46:26.333Z,72.73
2023-08-12T00:46:56.382Z,72.63
2023-08-12T00:47:26.441Z,72.43
2023-08-12T00:47:56.346Z,72.53
2023-08-12T00:48:26.293Z,72.73
2023-08-12T00:48:56.269Z,72.43
2023-08-12T00:49:26.283Z,72.43
2023-08-12T00:49:56.313Z,72.33
2023-08-12T00:50:26.353Z,72.23
2023-08-12T00:50:56.262Z,72.13
2023-08-12T00:51:26.283Z,71.93
2023-08-12T00:51:56.420Z,71.83
2023-08-12T00:52:26.472Z,71.53
2023-08-12T00:52:56.259Z,71.63
2023-08-12T00:53:26.249Z,71.63
2023-08-12T00:53:56.260Z,71.53
2023-08-12T00:54:26.244Z,71.43
2023-08-12T00:54:56.225Z,71.43
2023-08-12T00:55:26.345Z,71.53
2023-08-12T00:55:56.224Z,71.53
2023-08-12T00:56:26.210Z,71.53
2023-08-12T00:56:56.257Z,71.53
2023-08-12T00:57:26.230Z,71.43
2023-08-12T00:57:56.191Z,71.43
2023-08-12T00:58:26.196Z,71.43
2023-08-12T00:58:56.258Z,71.43
2023-08-12T00:59:26.359Z,71.43
2023-08-12T00:59:56.290Z,71.33
2023-08-12T01:00:26.198Z,71.43
2023-08-12T01:00:56.218Z,71.53
2023-08-12T01:01:26.177Z,71.53
2023-08-12T01:01:56.217Z,71.73
2023-08-12T01:02:26.483Z,71.83
2023-08-12T01:02:56.363Z,71.73
2023-08-12T01:03:26.171Z,71.53
2023-08-12T01:03:56.185Z,71.43
2023-08-12T01:04:26.172Z,71.53
2023-08-12T01:04:56.170Z,71.43
2023-08-12T01:05:26.136Z,71.33
2023-08-12T01:05:56.237Z,71.43
2023-08-12T01:06:26.347Z,71.53
2023-08-12T01:06:56.094Z,71.53
2023-08-12T01:07:26.090Z,71.63
2023-08-12T01:07:56.149Z,71.63
2023-08-12T01:08:26.110Z,71.73
2023-08-12T01:08:56.122Z,71.63
2023-08-12T01:09:26.134Z,71.63
2023-08-12T01:09:56.177Z,71.73
2023-08-12T01:10:26.057Z,71.63
2023-08-12T01:10:56.036Z,71.73
2023-08-12T01:11:26.054Z,71.73
2023-08-12T01:11:56.032Z,71.73
2023-08-12T01:12:26.049Z,71.63
2023-08-12T01:12:56.071Z,71.63
2023-08-12T01:13:26.027Z,71.53
2023-08-12T01:13:56.038Z,71.53
2023-08-12T01:14:26.031Z,71.53
2023-08-12T01:14:55.995Z,71.63
2023-08-12T01:15:26.040Z,71.53
2023-08-12T01:15:56.004Z,71.63
2023-08-12T01:16:26.071Z,71.63
2023-08-12T01:16:56.023Z,71.83
2023-08-12T01:17:25.978Z,71.83
2023-08-12T01:17:56.022Z,71.83
2023-08-12T01:18:26.036Z,71.73
2023-08-12T01:18:56.027Z,71.83
2023-08-12T01:19:25.973Z,71.83
2023-08-12T01:19:56.088Z,71.73
2023-08-12T01:20:26.232Z,71.93
2023-08-12T01:20:55.942Z,71.73
2023-08-12T01:21:25.953Z,71.73
2023-08-12T01:21:55.946Z,71.83
2023-08-12T01:22:25.913Z,71.83
2023-08-12T01:22:55.941Z,71.73
2023-08-12T01:23:25.951Z,71.73
2023-08-12T01:23:55.899Z,71.83
2023-08-12T01:24:25.953Z,71.93
2023-08-12T01:24:55.911Z,71.93
2023-08-12T01:25:25.893Z,72.23
2023-08-12T01:25:55.931Z,72.23
2023-08-12T01:26:25.914Z,72.33
2023-08-12T01:26:55.895Z,72.33
2023-08-12T01:27:26.471Z,72.23
2023-08-12T01:27:55.854Z,72.13
2023-08-12T01:28:25.921Z,72.03
2023-08-12T01:28:55.851Z,72.03
2023-08-12T01:29:25.841Z,72.13
2023-08-12T01:29:55.850Z,72.13
2023-08-12T01:30:25.860Z,72.13
2023-08-12T01:30:55.913Z,72.13
2023-08-12T01:31:25.848Z,72.23
2023-08-12T01:31:56.068Z,72.23
2023-08-12T01:32:25.824Z,72.23
2023-08-12T01:32:55.839Z,72.23
2023-08-12T01:33:25.809Z,72.23
2023-08-12T01:33:55.970Z,72.43
2023-08-12T01:34:26.000Z,72.23
2023-08-12T01:34:55.815Z,71.93
2023-08-12T01:35:25.818Z,71.93
2023-08-12T01:35:55.796Z,71.93
2023-08-12T01:36:25.852Z,72.03
2023-08-12T01:36:55.765Z,72.03
2023-08-12T01:37:25.770Z,72.03
2023-08-12T01:37:55.745Z,72.13
2023-08-12T01:38:25.752Z,72.33
2023-08-12T01:38:55.764Z,72.33
2023-08-12T01:39:25.745Z,72.43
2023-08-12T01:39:55.757Z,72.43
2023-08-12T01:40:25.733Z,72.83
2023-08-12T01:40:56.399Z,72.73
2023-08-12T01:41:25.712Z,72.63
2023-08-12T01:41:55.718Z,72.53
2023-08-12T01:42:25.738Z,72.43
2023-08-12T01:42:55.691Z,72.53
2023-08-12T01:43:25.675Z,72.43
2023-08-12T01:43:55.721Z,72.43
2023-08-12T01:44:25.675Z,72.53
2023-08-12T01:44:55.672Z,72.33
2023-08-12T01:45:25.682Z,72.23
2023-08-12T01:45:55.727Z,72.53
2023-08-12T01:46:25.679Z,72.43
2023-08-12T01:46:55.661Z,72.33
2023-08-12T01:47:25.715Z,72.43
2023-08-12T01:47:56.478Z,72.53
2023-08-12T01:48:25.953Z,72.33
2023-08-12T01:48:55.616Z,72.13
2023-08-12T01:49:25.673Z,72.13
2023-08-12T01:49:55.616Z,72.23
2023-08-12T01:50:25.619Z,72.43
2023-08-12T01:50:55.617Z,72.43
2023-08-12T01:51:25.594Z,72.33
2023-08-12T01:51:55.581Z,72.33
2023-08-12T01:52:26.503Z,72.33
2023-08-12T01:52:55.594Z,72.53
2023-08-12T01:53:26.467Z,72.73
2023-08-12T01:53:55.611Z,72.73
2023-08-12T01:54:25.648Z,72.93
2023-08-12T01:54:55.621Z,72.93
2023-08-12T01:55:25.575Z,72.93
2023-08-12T01:55:55.559Z,72.93
2023-08-12T01:56:25.563Z,72.83
2023-08-12T01:56:55.591Z,72.83
2023-08-12T01:57:25.533Z,72.93
2023-08-12T01:57:55.534Z,73.03
2023-08-12T01:58:25.535Z,72.73
2023-08-12T01:58:55.531Z,72.63
2023-08-12T01:59:25.523Z,72.63
2023-08-12T01:59:55.572Z,72.73
2023-08-12T02:00:25.499Z,72.63
2023-08-12T02:00:55.542Z,72.53
2023-08-12T02:01:25.550Z,72.53
2023-08-12T02:01:55.688Z,72.63
2023-08-12T02:02:25.707Z,72.63
2023-08-12T02:02:55.617Z,72.73
2023-08-12T02:03:26.252Z,72.73
2023-08-12T02:03:55.664Z,72.73
2023-08-12T02:04:25.469Z,72.83
2023-08-12T02:04:55.473Z,72.93
2023-08-12T02:05:25.480Z,72.97
2023-08-12T02:05:56.449Z,72.93
2023-08-12T02:06:25.477Z,72.83
2023-08-12T02:06:55.468Z,72.93
2023-08-12T02:07:25.441Z,72.73
2023-08-12T02:07:55.473Z,72.53
2023-08-12T02:08:25.450Z,72.43
2023-08-12T02:08:55.444Z,72.33
2023-08-12T02:09:25.400Z,72.23
2023-08-12T02:09:55.432Z,72.23
2023-08-12T02:10:25.397Z,72.23
2023-08-12T02:10:55.403Z,72.33
2023-08-12T02:11:25.392Z,72.43
2023-08-12T02:11:55.402Z,72.53
2023-08-12T02:12:25.372Z,72.63
2023-08-12T02:12:55.407Z,72.83
2023-08-12T02:13:25.386Z,72.63
2023-08-12T02:13:55.373Z,72.83
2023-08-12T02:14:25.372Z,73.03
2023-08-12T02:14:55.426Z,72.93
2023-08-12T02:15:25.341Z,72.93
2023-08-12T02:15:55.507Z,73.03
2023-08-12T02:16:25.610Z,73.13
2023-08-12T02:16:55.361Z,73.33
2023-08-12T02:17:25.364Z,73.13
2023-08-12T02:17:55.344Z,73.23
2023-08-12T02:18:25.320Z,73.13
2023-08-12T02:18:55.305Z,73.13
2023-08-12T02:19:25.322Z,73.13
2023-08-12T02:19:55.328Z,73.53
2023-08-12T02:20:25.316Z,73.53
2023-08-12T02:20:55.281Z,73.43
2023-08-12T02:21:25.285Z,73.23
2023-08-12T02:21:55.267Z,73.23
2023-08-12T02:22:25.283Z,73.23
2023-08-12T02:22:55.251Z,73.43
2023-08-12T02:23:25.255Z,73.43
2023-08-12T02:23:55.278Z,73.53
2023-08-12T02:24:25.264Z,73.53
2023-08-12T02:24:55.220Z,73.23
2023-08-12T02:25:25.280Z,73.33
2023-08-12T02:25:55.234Z,73.33
2023-08-12T02:26:25.230Z,73.43
2023-08-12T02:26:55.239Z,73.53
2023-08-12T02:27:25.261Z,73.53
2023-08-12T02:27:55.228Z,73.63
2023-08-12T02:28:25.205Z,73.73
2023-08-12T02:28:55.216Z,73.73
2023-08-12T02:29:25.232Z,73.73
2023-08-12T02:29:55.318Z,74.03
2023-08-12T02:30:25.380Z,74.43
2023-08-12T02:30:55.992Z,74.23
2023-08-12T02:31:25.193Z,74.03
2023-08-12T02:31:55.222Z,73.77
2023-08-12T02:32:25.221Z,73.77
2023-08-12T02:32:55.191Z,73.63
2023-08-12T02:33:25.180Z,73.83
2023-08-12T02:33:55.144Z,73.93
2023-08-12T02:34:25.133Z,73.63
2023-08-12T02:34:55.170Z,73.63
2023-08-12T02:35:25.148Z,73.53
2023-08-12T02:35:55.138Z,73.47
2023-08-12T02:36:25.117Z,72.56
2023-08-12T02:36:55.970Z,72.23
2023-08-12T02:37:25.107Z,72.27
2023-08-12T02:37:55.133Z,72.23
2023-08-12T02:38:25.085Z,72.23
2023-08-12T02:38:55.105Z,72.13
2023-08-12T02:39:25.107Z,71.93
2023-08-12T02:39:55.118Z,71.43
2023-08-12T02:40:25.074Z,71.63
2023-08-12T02:40:55.109Z,71.93
2023-08-12T02:41:25.997Z,71.73
2023-08-12T02:41:55.089Z,71.03
2023-08-12T02:42:25.120Z,70.43
2023-08-12T02:42:55.033Z,70.43
2023-08-12T02:43:25.071Z,70.53
2023-08-12T02:43:55.170Z,70.62
2023-08-12T02:44:25.245Z,70.53
2023-08-12T02:44:55.073Z,70.62
2023-08-12T02:45:25.054Z,70.23
2023-08-12T02:45:55.064Z,70.12
2023-08-12T02:46:25.038Z,70.12
2023-08-12T02:46:54.990Z,70.12
2023-08-12T02:47:25.038Z,70.12
2023-08-12T02:47:55.018Z,70.12
2023-08-12T02:48:24.991Z,69.99
2023-08-12T02:48:54.970Z,70.29
2023-08-12T02:49:24.980Z,70.29
2023-08-12T02:49:54.956Z,70.39
2023-08-12T02:50:24.982Z,70.39
2023-08-12T02:50:54.961Z,70.50
2023-08-12T02:51:24.937Z,70.39
2023-08-12T02:51:54.937Z,70.09
2023-08-12T02:52:24.927Z,69.99
2023-08-12T02:52:54.927Z,70.19
2023-08-12T02:53:24.950Z,70.39
2023-08-12T02:53:54.923Z,70.39
2023-08-12T02:54:24.924Z,70.19
2023-08-12T02:54:54.901Z,70.09
2023-08-12T02:55:24.917Z,69.49
2023-08-12T02:55:54.946Z,69.49
2023-08-12T02:56:24.895Z,69.49
2023-08-12T02:56:54.901Z,69.59
2023-08-12T02:57:24.883Z,70.09
2023-08-12T02:57:55.020Z,70.39
2023-08-12T02:58:25.076Z,70.29
2023-08-12T02:58:54.904Z,69.89
2023-08-12T02:59:24.866Z,69.89
2023-08-12T02:59:54.880Z,69.39
2023-08-12T03:00:24.863Z,69.29
2023-08-12T03:00:54.874Z,68.89
2023-08-12T03:01:24.868Z,68.59
2023-08-12T03:01:54.839Z,68.69
2023-08-12T03:02:24.841Z,68.69
2023-08-12T03:02:54.975Z,68.55
2023-08-12T03:03:24.854Z,68.46
2023-08-12T03:03:54.811Z,68.36
2023-08-12T03:04:24.802Z,68.36
2023-08-12T03:04:54.831Z,68.26
2023-08-12T03:05:24.920Z,68.16
2023-08-12T03:05:54.794Z,68.16
2023-08-12T03:06:24.834Z,68.16
2023-08-12T03:06:54.825Z,68.05
2023-08-12T03:07:24.788Z,68.16
2023-08-12T03:07:54.787Z,67.96
2023-08-12T03:08:24.775Z,67.96
2023-08-12T03:08:54.768Z,67.86
2023-08-12T03:09:24.815Z,67.86
2023-08-12T03:09:54.736Z,67.76
2023-08-12T03:10:24.742Z,67.66
2023-08-12T03:10:54.746Z,67.66
2023-08-12T03:11:24.715Z,67.76
2023-08-12T03:11:54.886Z,67.76
2023-08-12T03:12:24.990Z,67.66
2023-08-12T03:12:54.822Z,67.32
2023-08-12T03:13:24.723Z,67.32
2023-08-12T03:13:54.717Z,67.43
2023-08-12T03:14:24.755Z,67.32
2023-08-12T03:14:54.700Z,67.32
2023-08-12T03:15:24.821Z,67.43
2023-08-12T03:15:54.705Z,67.43
2023-08-12T03:16:24.703Z,67.43
2023-08-12T03:16:54.652Z,67.43
2023-08-12T03:17:24.716Z,67.32
2023-08-12T03:17:54.723Z,67.13
2023-08-12T03:18:24.660Z,67.13
2023-08-12T03:18:54.650Z,67.02
2023-08-12T03:19:24.684Z,67.13
2023-08-12T03:19:54.636Z,67.13
2023-08-12T03:20:24.640Z,67.02
2023-08-12T03:20:54.696Z,67.02
2023-08-12T03:21:24.604Z,67.32
2023-08-12T03:21:54.614Z,67.43
2023-08-12T03:22:24.618Z,67.43
2023-08-12T03:22:54.603Z,67.22
2023-08-12T03:23:24.761Z,67.13
2023-08-12T03:23:54.614Z,67.13
2023-08-12T03:24:24.585Z,67.02
2023-08-12T03:24:54.636Z,66.93
2023-08-12T03:25:24.572Z,67.02
2023-08-12T03:25:54.679Z,67.02
2023-08-12T03:26:24.779Z,66.93
2023-08-12T03:26:54.571Z,67.02
2023-08-12T03:27:24.550Z,67.02
2023-08-12T03:27:54.548Z,66.93
2023-08-12T03:28:24.546Z,66.93
2023-08-12T03:28:54.533Z,67.02
2023-08-12T03:29:24.534Z,67.02
2023-08-12T03:29:54.549Z,67.02
2023-08-12T03:30:24.521Z,67.13
2023-08-12T03:30:54.630Z,67.43
2023-08-12T03:31:24.521Z,67.52
2023-08-12T03:31:54.510Z,67.13
2023-08-12T03:32:24.491Z,67.43
2023-08-12T03:32:54.549Z,67.52
2023-08-12T03:33:24.420Z,67.63
2023-08-12T03:33:54.480Z,67.93
2023-08-12T03:34:24.477Z,68.13
2023-08-12T03:34:54.503Z,68.23
2023-08-12T03:35:24.469Z,67.93
2023-08-12T03:35:54.408Z,67.72
2023-08-12T03:36:24.484Z,67.72
2023-08-12T03:36:54.385Z,69.12
2023-08-12T03:37:24.400Z,68.52
2023-08-12T03:37:54.393Z,68.32
2023-08-12T03:38:24.406Z,68.43
2023-08-12T03:38:54.394Z,68.52
2023-08-12T03:39:24.371Z,68.52
2023-08-12T03:39:54.606Z,68.52
2023-08-12T03:40:24.634Z,68.62
2023-08-12T03:40:54.467Z,68.62
2023-08-12T03:41:24.412Z,68.32
2023-08-12T03:41:54.443Z,68.23
2023-08-12T03:42:24.455Z,68.43
2023-08-12T03:42:54.342Z,68.43
2023-08-12T03:43:24.346Z,68.13
2023-08-12T03:43:54.321Z,68.43
2023-08-12T03:44:24.333Z,68.82
2023-08-12T03:44:54.354Z,68.93
2023-08-12T03:45:24.397Z,69.02
2023-08-12T03:45:54.374Z,68.93
2023-08-12T03:46:24.338Z,68.93
2023-08-12T03:46:54.344Z,68.93
2023-08-12T03:47:24.353Z,69.02
2023-08-12T03:47:54.330Z,69.23
2023-08-12T03:48:24.268Z,69.23
2023-08-12T03:48:54.389Z,68.73
2023-08-12T03:49:24.333Z,68.32
2023-08-12T03:49:54.282Z,68.62
2023-08-12T03:50:24.992Z,68.82
2023-08-12T03:50:54.252Z,69.12
2023-08-12T03:51:24.228Z,69.23
2023-08-12T03:51:54.257Z,69.32
2023-08-12T03:52:24.251Z,69.46
2023-08-12T03:52:54.212Z,69.53
2023-08-12T03:53:24.242Z,69.46
2023-08-12T03:53:54.376Z,69.73
2023-08-12T03:54:24.432Z,70.06
2023-08-12T03:54:54.304Z,70.53
2023-08-12T03:55:24.181Z,70.62
2023-08-12T03:55:54.205Z,70.56
2023-08-12T03:56:24.221Z,70.56
2023-08-12T03:56:54.172Z,70.36
2023-08-12T03:57:24.168Z,70.56
2023-08-12T03:57:54.196Z,70.36
2023-08-12T03:58:24.991Z,70.36
2023-08-12T03:58:54.178Z,70.76
2023-08-12T03:59:24.152Z,70.76
2023-08-12T03:59:54.143Z,71.26
2023-08-12T04:00:24.145Z,71.36
2023-08-12T04:00:54.161Z,71.46
2023-08-12T04:01:24.135Z,71.46
2023-08-12T04:01:54.127Z,71.46
2023-08-12T04:02:24.172Z,71.76
2023-08-12T04:02:54.165Z,72.26
2023-08-12T04:03:24.176Z,72.16
2023-08-12T04:03:54.179Z,72.66
2023-08-12T04:04:24.111Z,73.06
2023-08-12T04:04:54.106Z,73.39
2023-08-12T04:05:24.081Z,73.70
2023-08-12T04:05:54.113Z,73.60
2023-08-12T04:06:24.083Z,73.60
2023-08-12T04:06:54.996Z,73.70
2023-08-12T04:07:24.086Z,73.60
2023-08-12T04:07:54.194Z,73.80
2023-08-12T04:08:24.294Z,73.60
2023-08-12T04:08:54.101Z,73.60
2023-08-12T04:09:24.069Z,73.39
2023-08-12T04:09:54.062Z,72.69
2023-08-12T04:10:24.088Z,72.39
2023-08-12T04:10:54.013Z,72.69
2023-08-12T04:11:24.025Z,72.80
2023-08-12T04:11:54.039Z,73.00
2023-08-12T04:12:24.011Z,73.60
2023-08-12T04:12:54.025Z,73.39
2023-08-12T04:13:24.020Z,73.30
2023-08-12T04:13:53.987Z,73.33
2023-08-12T04:14:24.004Z,73.19
2023-08-12T04:14:53.996Z,73.10
2023-08-12T04:15:23.990Z,73.13
2023-08-12T04:15:54.002Z,73.70
2023-08-12T04:16:23.994Z,73.70
2023-08-12T04:16:53.997Z,74.10
2023-08-12T04:17:24.008Z,74.30
2023-08-12T04:17:53.995Z,74.40
2023-08-12T04:18:23.972Z,74.40
2023-08-12T04:18:53.933Z,74.60
2023-08-12T04:19:23.951Z,74.90
2023-08-12T04:19:53.972Z,75.00
2023-08-12T04:20:23.915Z,74.90
2023-08-12T04:20:53.923Z,74.90
2023-08-12T04:21:23.929Z,74.90
2023-08-12T04:21:54.026Z,74.90
2023-08-12T04:22:24.100Z,74.70
2023-08-12T04:22:53.903Z,74.50
2023-08-12T04:23:23.900Z,74.70
2023-08-12T04:23:53.873Z,74.70
2023-08-12T04:24:23.899Z,74.80
2023-08-12T04:24:53.876Z,75.00
2023-08-12T04:25:23.880Z,75.20
2023-08-12T04:25:53.863Z,75.00
2023-08-12T04:26:23.845Z,75.00
2023-08-12T04:26:53.865Z,75.20
2023-08-12T04:27:23.868Z,75.20
2023-08-12T04:27:53.854Z,75.20
2023-08-12T04:28:23.877Z,75.20
2023-08-12T04:28:53.833Z,74.70
2023-08-12T04:29:23.871Z,74.60
2023-08-12T04:29:53.877Z,74.40
2023-08-12T04:30:23.812Z,74.84
2023-08-12T04:30:54.146Z,75.34
2023-08-12T04:31:23.842Z,75.30
2023-08-12T04:31:53.799Z,75.43
2023-08-12T04:32:23.862Z,75.43
2023-08-12T04:32:53.796Z,75.63
2023-08-12T04:33:23.792Z,75.54
2023-08-12T04:33:53.763Z,75.34
2023-08-12T04:34:24.495Z,73.93
2023-08-12T04:34:54.507Z,73.33
2023-08-12T04:35:23.893Z,73.23
2023-08-12T04:35:53.876Z,73.73
2023-08-12T04:36:23.998Z,74.73
2023-08-12T04:36:53.734Z,75.23
2023-08-12T04:37:23.745Z,75.23
2023-08-12T04:37:53.731Z,75.63
2023-08-12T04:38:23.728Z,76.04
2023-08-12T04:38:53.717Z,76.24
2023-08-12T04:39:23.722Z,76.14
2023-08-12T04:39:53.699Z,76.34
2023-08-12T04:40:23.767Z,76.64
2023-08-12T04:40:53.731Z,76.54
2023-08-12T04:41:23.710Z,76.84
2023-08-12T04:41:53.680Z,76.94
2023-08-12T04:42:23.678Z,76.84
2023-08-12T04:42:53.673Z,77.04
2023-08-12T04:43:23.683Z,77.04
2023-08-12T04:43:53.668Z,77.14
2023-08-12T04:44:23.683Z,76.74
2023-08-12T04:44:53.640Z,77.14
2023-08-12T04:45:23.707Z,77.34
2023-08-12T04:45:53.791Z,77.24
2023-08-12T04:46:23.700Z,76.74
2023-08-12T04:46:53.620Z,76.04
2023-08-12T04:47:23.623Z,75.74
2023-08-12T04:47:53.661Z,75.74
2023-08-12T04:48:23.632Z,76.84
2023-08-12T04:48:53.621Z,77.24
2023-08-12T04:49:23.607Z,77.54
2023-08-12T04:49:53.713Z,77.94
2023-08-12T04:50:23.835Z,78.34
2023-08-12T04:50:53.617Z,78.74
2023-08-12T04:51:23.572Z,78.64
2023-08-12T04:51:53.579Z,79.04
2023-08-12T04:52:23.563Z,78.34
2023-08-12T04:52:53.550Z,78.24
2023-08-12T04:53:23.565Z,78.44
2023-08-12T04:53:53.546Z,78.84
2023-08-12T04:54:23.553Z,78.04
2023-08-12T04:54:53.538Z,77.84
2023-08-12T04:55:23.547Z,78.04
2023-08-12T04:55:53.562Z,78.24
2023-08-12T04:56:23.542Z,78.74
2023-08-12T04:56:53.550Z,78.84
2023-08-12T04:57:23.579Z,78.64
2023-08-12T04:57:53.536Z,78.44
2023-08-12T04:58:23.522Z,78.94
2023-08-12T04:58:53.485Z,79.14
2023-08-12T04:59:23.488Z,79.44
2023-08-12T04:59:53.500Z,79.74
2023-08-12T05:00:23.516Z,79.94
2023-08-12T05:00:53.473Z,80.44
2023-08-12T05:01:23.565Z,80.65
2023-08-12T05:02:03.932Z,80.94
2023-08-12T05:02:23.904Z,80.85
2023-08-12T05:02:53.480Z,81.24
2023-08-12T05:03:23.501Z,81.24
2023-08-12T05:03:53.569Z,81.85
2023-08-12T05:04:23.626Z,81.99
2023-08-12T05:04:53.478Z,81.68
2023-08-12T05:05:23.544Z,81.59
2023-08-12T05:05:53.437Z,81.99
2023-08-12T05:06:23.406Z,82.09
2023-08-12T05:06:53.436Z,81.68
2023-08-12T05:07:23.400Z,82.49
2023-08-12T05:07:53.376Z,81.79
2023-08-12T05:08:23.388Z,81.18
2023-08-12T05:08:54.007Z,80.28
2023-08-12T05:09:23.384Z,80.79
2023-08-12T05:09:53.384Z,81.18
2023-08-12T05:10:23.393Z,81.79
2023-08-12T05:10:53.396Z,81.68
2023-08-12T05:11:23.360Z,81.79
2023-08-12T05:11:53.357Z,82.29
2023-08-12T05:12:23.358Z,82.18
2023-08-12T05:12:53.391Z,82.18
2023-08-12T05:13:23.364Z,82.09
2023-08-12T05:13:53.328Z,81.18
2023-08-12T05:14:23.313Z,80.48
2023-08-12T05:14:53.313Z,80.38
2023-08-12T05:15:23.367Z,80.79
2023-08-12T05:15:53.404Z,81.09
2023-08-12T05:16:23.353Z,81.48
2023-08-12T05:16:53.319Z,81.88
2023-08-12T05:17:23.295Z,81.29
2023-08-12T05:17:53.649Z,80.98
2023-08-12T05:18:23.484Z,81.09
2023-08-12T05:18:53.276Z,81.18
2023-08-12T05:19:23.251Z,81.88
2023-08-12T05:19:53.255Z,82.49
2023-08-12T05:20:23.250Z,82.79
2023-08-12T05:20:53.241Z,83.29
2023-08-12T05:21:23.261Z,83.49
2023-08-12T05:21:53.252Z,83.59
2023-08-12T05:22:23.244Z,83.39
2023-08-12T05:22:53.238Z,83.49
2023-08-12T05:23:23.227Z,83.69
2023-08-12T05:23:53.221Z,83.89
2023-08-12T05:24:23.200Z,83.79
2023-08-12T05:24:53.200Z,84.03
2023-08-12T05:25:23.207Z,84.13
2023-08-12T05:25:55.395Z,84.29
2023-08-12T05:26:23.208Z,84.33
2023-08-12T05:26:53.200Z,84.53
2023-08-12T05:27:23.211Z,84.53
2023-08-12T05:27:53.193Z,84.63
2023-08-12T05:28:23.164Z,84.63
2023-08-12T05:28:53.175Z,84.83
2023-08-12T05:29:23.175Z,84.83
2023-08-12T05:29:53.157Z,84.23
2023-08-12T05:30:23.157Z,85.13
2023-08-12T05:30:53.137Z,85.53
2023-08-12T05:31:23.190Z,85.74
2023-08-12T05:31:53.283Z,85.74
2023-08-12T05:32:23.329Z,85.94
2023-08-12T05:32:53.184Z,86.14
2023-08-12T05:33:23.169Z,86.24
2023-08-12T05:33:53.272Z,86.14
2023-08-12T05:34:23.109Z,85.63
2023-08-12T05:34:53.094Z,85.63
2023-08-12T05:35:23.096Z,85.94
2023-08-12T05:35:53.148Z,86.44
2023-08-12T05:36:23.158Z,86.54
2023-08-12T05:36:53.091Z,86.54
2023-08-12T05:37:23.073Z,86.84
2023-08-12T05:37:53.070Z,87.04
2023-08-12T05:38:23.055Z,87.04
2023-08-12T05:38:53.038Z,86.84
2023-08-12T05:39:23.049Z,87.04
2023-08-12T05:39:53.029Z,87.44
2023-08-12T05:40:23.034Z,87.24
2023-08-12T05:40:53.039Z,87.14
2023-08-12T05:41:23.036Z,87.14
2023-08-12T05:41:53.046Z,86.94
2023-08-12T05:42:23.052Z,86.84
2023-08-12T05:42:53.003Z,86.84
2023-08-12T05:43:22.998Z,86.74
2023-08-12T05:43:53.014Z,86.74
2023-08-12T05:44:23.006Z,86.44
2023-08-12T05:44:52.986Z,86.44
2023-08-12T05:45:23.015Z,86.33
2023-08-12T05:45:53.148Z,86.54
2023-08-12T05:46:23.374Z,86.84
2023-08-12T05:46:52.993Z,86.54
2023-08-12T05:47:23.527Z,86.64
2023-08-12T05:47:53.050Z,86.84
2023-08-12T05:48:22.959Z,87.14
2023-08-12T05:48:52.946Z,87.04
2023-08-12T05:49:22.938Z,87.14
2023-08-12T05:49:52.931Z,87.14
2023-08-12T05:50:23.291Z,87.14
2023-08-12T05:50:52.945Z,87.74
2023-08-12T05:51:22.943Z,87.74
2023-08-12T05:51:52.933Z,87.94
2023-08-12T05:52:22.939Z,87.94
2023-08-12T05:52:52.950Z,88.04
2023-08-12T05:53:22.897Z,88.24
2023-08-12T05:53:52.879Z,88.54
2023-08-12T05:54:22.920Z,88.75
2023-08-12T05:54:52.902Z,88.84
2023-08-12T05:55:22.865Z,88.84
2023-08-12T05:55:52.889Z,88.64
2023-08-12T05:56:22.885Z,88.44
2023-08-12T05:56:52.898Z,88.44
2023-08-12T05:57:22.885Z,88.14
2023-08-12T05:57:52.852Z,87.84
2023-08-12T05:58:22.836Z,87.74
2023-08-12T05:58:52.837Z,87.64
2023-08-12T05:59:22.824Z,87.44
2023-08-12T05:59:53.031Z,87.34
2023-08-12T06:00:23.003Z,87.34
2023-08-12T06:00:52.816Z,87.14
2023-08-12T06:01:22.874Z,87.24
2023-08-12T06:01:52.839Z,87.34
2023-08-12T06:02:22.786Z,87.34
2023-08-12T06:02:53.065Z,87.34
2023-08-12T06:03:22.862Z,87.64
2023-08-12T06:03:52.800Z,88.04
2023-08-12T06:04:22.775Z,85.74
2023-08-12T06:04:52.779Z,85.13
2023-08-12T06:05:22.751Z,85.03
2023-08-12T06:05:52.780Z,84.83
2023-08-12T06:06:22.801Z,84.74
2023-08-12T06:06:52.756Z,84.83
2023-08-12T06:07:22.757Z,84.83
2023-08-12T06:07:52.726Z,84.83
2023-08-12T06:08:22.822Z,84.93
2023-08-12T06:08:52.710Z,84.63
2023-08-12T06:09:22.718Z,84.53
2023-08-12T06:09:52.712Z,84.63
2023-08-12T06:10:22.719Z,84.43
2023-08-12T06:10:52.691Z,85.13
2023-08-12T06:11:22.702Z,85.74
2023-08-12T06:11:52.689Z,85.74
2023-08-12T06:12:22.677Z,86.14
2023-08-12T06:12:52.683Z,86.33
2023-08-12T06:13:22.693Z,86.04
2023-08-12T06:13:52.777Z,85.94
2023-08-12T06:14:22.852Z,86.04
2023-08-12T06:14:52.668Z,86.44
2023-08-12T06:15:22.703Z,86.54
2023-08-12T06:15:52.672Z,86.74
2023-08-12T06:16:22.648Z,86.84
2023-08-12T06:16:52.648Z,87.04
2023-08-12T06:17:22.668Z,87.14
2023-08-12T06:17:52.650Z,87.24
2023-08-12T06:18:22.732Z,87.34
2023-08-12T06:18:52.704Z,87.24
2023-08-12T06:19:22.592Z,87.14
2023-08-12T06:19:52.593Z,87.34
2023-08-12T06:20:22.601Z,87.64
2023-08-12T06:20:52.588Z,87.64
2023-08-12T06:21:22.585Z,87.44
2023-08-12T06:21:52.567Z,87.44
2023-08-12T06:22:22.626Z,87.64
2023-08-12T06:22:52.557Z,87.64
2023-08-12T06:23:22.944Z,87.54
2023-08-12T06:23:52.560Z,87.14
2023-08-12T06:24:22.543Z,87.24
2023-08-12T06:24:52.542Z,87.44
2023-08-12T06:25:22.532Z,87.74
2023-08-12T06:25:52.528Z,87.64
2023-08-12T06:26:22.554Z,87.64